sensor_id;sensor_type;location;lat;lon;timestamp;P1;durP1;ratioP1;P2;durP2;ratioP2
22531;SDS011;11432;46.924;7.114;2023-11-19T00:02:07;8.00;;;3.35;;
22531;SDS011;11432;46.924;7.114;2023-11-19T00:04:36;4.60;;;3.20;;
22531;SDS011;11432;46.924;7.114;2023-11-19T00:07:05;7.38;;;3.72;;
22531;SDS011;11432;46.924;7.114;2023-11-19T00:09:33;4.57;;;3.42;;
22531;SDS011;11432;46.924;7.114;2023-11-19T00:11:58;8.27;;;4.40;;
22531;SDS011;11432;46.924;7.114;2023-11-19T00:14:25;5.28;;;3.25;;
22531;SDS011;11432;46.924;7.114;2023-11-19T00:16:51;4.15;;;3.53;;
22531;SDS011;11432;46.924;7.114;2023-11-19T00:19:18;5.32;;;3.30;;
22531;SDS011;11432;46.924;7.114;2023-11-19T00:21:44;4.80;;;3.47;;
22531;SDS011;11432;46.924;7.114;2023-11-19T00:24:11;3.90;;;3.13;;
22531;SDS011;11432;46.924;7.114;2023-11-19T00:26:37;6.10;;;3.20;;
22531;SDS011;11432;46.924;7.114;2023-11-19T00:29:03;4.00;;;3.22;;
22531;SDS011;11432;46.924;7.114;2023-11-19T00:31:29;6.68;;;3.22;;
22531;SDS011;11432;46.924;7.114;2023-11-19T00:33:55;4.63;;;2.88;;
22531;SDS011;11432;46.924;7.114;2023-11-19T00:36:20;5.53;;;3.50;;
22531;SDS011;11432;46.924;7.114;2023-11-19T00:38:48;5.43;;;3.15;;
22531;SDS011;11432;46.924;7.114;2023-11-19T00:41:15;4.65;;;3.05;;
22531;SDS011;11432;46.924;7.114;2023-11-19T00:43:41;5.45;;;3.80;;
22531;SDS011;11432;46.924;7.114;2023-11-19T00:46:07;4.80;;;3.25;;
22531;SDS011;11432;46.924;7.114;2023-11-19T00:48:33;9.98;;;3.78;;
22531;SDS011;11432;46.924;7.114;2023-11-19T00:50:59;4.97;;;3.28;;
22531;SDS011;11432;46.924;7.114;2023-11-19T00:53:24;4.70;;;3.70;;
22531;SDS011;11432;46.924;7.114;2023-11-19T00:55:50;5.13;;;3.53;;
22531;SDS011;11432;46.924;7.114;2023-11-19T00:58:16;8.27;;;3.92;;
22531;SDS011;11432;46.924;7.114;2023-11-19T01:00:43;5.43;;;3.72;;
22531;SDS011;11432;46.924;7.114;2023-11-19T01:03:09;4.93;;;3.33;;
22531;SDS011;11432;46.924;7.114;2023-11-19T01:05:36;5.18;;;3.50;;
22531;SDS011;11432;46.924;7.114;2023-11-19T01:08:02;5.68;;;3.20;;
22531;SDS011;11432;46.924;7.114;2023-11-19T01:10:29;5.75;;;3.67;;
22531;SDS011;11432;46.924;7.114;2023-11-19T01:12:55;5.05;;;3.60;;
22531;SDS011;11432;46.924;7.114;2023-11-19T01:15:21;5.43;;;3.45;;
22531;SDS011;11432;46.924;7.114;2023-11-19T01:17:47;4.07;;;3.20;;
22531;SDS011;11432;46.924;7.114;2023-11-19T01:20:13;4.40;;;3.00;;
22531;SDS011;11432;46.924;7.114;2023-11-19T01:22:39;4.88;;;3.10;;
22531;SDS011;11432;46.924;7.114;2023-11-19T01:25:05;6.30;;;3.50;;
22531;SDS011;11432;46.924;7.114;2023-11-19T01:27:32;4.85;;;2.92;;
22531;SDS011;11432;46.924;7.114;2023-11-19T01:29:59;4.15;;;3.08;;
22531;SDS011;11432;46.924;7.114;2023-11-19T01:32:28;6.43;;;3.08;;
22531;SDS011;11432;46.924;7.114;2023-11-19T01:34:53;3.83;;;2.75;;
22531;SDS011;11432;46.924;7.114;2023-11-19T01:37:19;3.88;;;2.60;;
22531;SDS011;11432;46.924;7.114;2023-11-19T01:39:45;4.05;;;2.70;;
22531;SDS011;11432;46.924;7.114;2023-11-19T01:42:10;5.72;;;2.60;;
22531;SDS011;11432;46.924;7.114;2023-11-19T01:44:37;4.07;;;2.30;;
22531;SDS011;11432;46.924;7.114;2023-11-19T01:47:03;3.92;;;2.67;;
22531;SDS011;11432;46.924;7.114;2023-11-19T01:49:29;3.75;;;2.40;;
22531;SDS011;11432;46.924;7.114;2023-11-19T01:51:57;3.40;;;2.10;;
22531;SDS011;11432;46.924;7.114;2023-11-19T01:54:23;3.90;;;2.55;;
22531;SDS011;11432;46.924;7.114;2023-11-19T01:56:49;2.72;;;2.10;;
22531;SDS011;11432;46.924;7.114;2023-11-19T01:59:14;3.22;;;2.35;;
22531;SDS011;11432;46.924;7.114;2023-11-19T02:01:41;3.47;;;2.22;;
22531;SDS011;11432;46.924;7.114;2023-11-19T02:04:07;4.05;;;2.60;;
22531;SDS011;11432;46.924;7.114;2023-11-19T02:06:34;7.30;;;2.22;;
22531;SDS011;11432;46.924;7.114;2023-11-19T02:09:02;4.60;;;2.20;;
22531;SDS011;11432;46.924;7.114;2023-11-19T02:11:32;3.85;;;2.30;;
22531;SDS011;11432;46.924;7.114;2023-11-19T02:13:59;2.88;;;1.90;;
22531;SDS011;11432;46.924;7.114;2023-11-19T02:16:25;3.72;;;2.05;;
22531;SDS011;11432;46.924;7.114;2023-11-19T02:18:51;7.47;;;2.10;;
22531;SDS011;11432;46.924;7.114;2023-11-19T02:21:16;3.80;;;2.13;;
22531;SDS011;11432;46.924;7.114;2023-11-19T02:23:43;2.75;;;1.92;;
22531;SDS011;11432;46.924;7.114;2023-11-19T02:26:18;3.38;;;2.00;;
22531;SDS011;11432;46.924;7.114;2023-11-19T02:29:14;4.68;;;1.90;;
22531;SDS011;11432;46.924;7.114;2023-11-19T02:31:40;3.42;;;2.10;;
22531;SDS011;11432;46.924;7.114;2023-11-19T02:34:05;3.30;;;1.95;;
22531;SDS011;11432;46.924;7.114;2023-11-19T02:36:31;3.45;;;1.98;;
22531;SDS011;11432;46.924;7.114;2023-11-19T02:38:58;5.95;;;2.13;;
22531;SDS011;11432;46.924;7.114;2023-11-19T02:41:24;2.72;;;1.75;;
22531;SDS011;11432;46.924;7.114;2023-11-19T02:43:49;2.78;;;1.70;;
22531;SDS011;11432;46.924;7.114;2023-11-19T02:46:15;3.35;;;1.90;;
22531;SDS011;11432;46.924;7.114;2023-11-19T02:48:42;2.72;;;1.63;;
22531;SDS011;11432;46.924;7.114;2023-11-19T02:51:09;2.40;;;1.60;;
22531;SDS011;11432;46.924;7.114;2023-11-19T02:53:35;5.05;;;1.73;;
22531;SDS011;11432;46.924;7.114;2023-11-19T02:56:02;2.47;;;1.75;;
22531;SDS011;11432;46.924;7.114;2023-11-19T02:58:36;2.33;;;1.50;;
22531;SDS011;11432;46.924;7.114;2023-11-19T03:01:03;2.38;;;1.45;;
22531;SDS011;11432;46.924;7.114;2023-11-19T03:03:37;2.50;;;1.50;;
22531;SDS011;11432;46.924;7.114;2023-11-19T03:06:05;3.15;;;1.40;;
22531;SDS011;11432;46.924;7.114;2023-11-19T03:08:31;2.45;;;1.58;;
22531;SDS011;11432;46.924;7.114;2023-11-19T03:11:00;7.13;;;2.67;;
22531;SDS011;11432;46.924;7.114;2023-11-19T03:13:26;5.88;;;2.63;;
22531;SDS011;11432;46.924;7.114;2023-11-19T03:15:52;6.05;;;1.90;;
22531;SDS011;11432;46.924;7.114;2023-11-19T03:18:19;4.50;;;1.98;;
22531;SDS011;11432;46.924;7.114;2023-11-19T03:20:46;2.83;;;1.60;;
22531;SDS011;11432;46.924;7.114;2023-11-19T03:23:11;5.25;;;1.55;;
22531;SDS011;11432;46.924;7.114;2023-11-19T03:25:37;2.25;;;1.35;;
22531;SDS011;11432;46.924;7.114;2023-11-19T03:28:03;2.45;;;1.45;;
22531;SDS011;11432;46.924;7.114;2023-11-19T03:30:29;4.20;;;1.77;;
22531;SDS011;11432;46.924;7.114;2023-11-19T03:32:55;5.75;;;2.10;;
22531;SDS011;11432;46.924;7.114;2023-11-19T03:35:22;6.60;;;1.92;;
22531;SDS011;11432;46.924;7.114;2023-11-19T03:37:48;2.95;;;1.40;;
22531;SDS011;11432;46.924;7.114;2023-11-19T03:40:14;5.15;;;1.70;;
22531;SDS011;11432;46.924;7.114;2023-11-19T03:42:40;4.45;;;1.58;;
22531;SDS011;11432;46.924;7.114;2023-11-19T03:45:06;5.05;;;1.83;;
22531;SDS011;11432;46.924;7.114;2023-11-19T03:47:35;3.33;;;1.70;;
22531;SDS011;11432;46.924;7.114;2023-11-19T03:50:01;4.63;;;1.50;;
22531;SDS011;11432;46.924;7.114;2023-11-19T03:52:27;3.25;;;1.30;;
22531;SDS011;11432;46.924;7.114;2023-11-19T03:54:54;4.85;;;1.75;;
22531;SDS011;11432;46.924;7.114;2023-11-19T03:57:20;2.55;;;1.27;;
22531;SDS011;11432;46.924;7.114;2023-11-19T03:59:47;2.83;;;1.15;;
22531;SDS011;11432;46.924;7.114;2023-11-19T04:02:12;1.83;;;1.08;;
22531;SDS011;11432;46.924;7.114;2023-11-19T04:04:38;2.45;;;0.88;;
22531;SDS011;11432;46.924;7.114;2023-11-19T04:07:04;1.77;;;0.90;;
22531;SDS011;11432;46.924;7.114;2023-11-19T04:09:30;1.20;;;0.85;;
22531;SDS011;11432;46.924;7.114;2023-11-19T04:11:58;1.80;;;0.98;;
22531;SDS011;11432;46.924;7.114;2023-11-19T04:14:24;2.72;;;1.15;;
22531;SDS011;11432;46.924;7.114;2023-11-19T04:16:50;2.47;;;0.93;;
22531;SDS011;11432;46.924;7.114;2023-11-19T04:19:16;2.10;;;1.10;;
22531;SDS011;11432;46.924;7.114;2023-11-19T04:21:42;1.80;;;0.90;;
22531;SDS011;11432;46.924;7.114;2023-11-19T04:24:08;1.55;;;0.70;;
22531;SDS011;11432;46.924;7.114;2023-11-19T04:26:39;3.70;;;1.08;;
22531;SDS011;11432;46.924;7.114;2023-11-19T04:29:07;1.65;;;0.95;;
22531;SDS011;11432;46.924;7.114;2023-11-19T04:31:34;1.42;;;0.82;;
22531;SDS011;11432;46.924;7.114;2023-11-19T04:33:59;2.75;;;1.00;;
22531;SDS011;11432;46.924;7.114;2023-11-19T04:36:25;2.47;;;1.00;;
22531;SDS011;11432;46.924;7.114;2023-11-19T04:38:51;1.95;;;1.10;;
22531;SDS011;11432;46.924;7.114;2023-11-19T04:41:16;1.73;;;0.85;;
22531;SDS011;11432;46.924;7.114;2023-11-19T04:43:42;2.13;;;0.90;;
22531;SDS011;11432;46.924;7.114;2023-11-19T04:46:09;3.42;;;1.20;;
22531;SDS011;11432;46.924;7.114;2023-11-19T04:48:35;2.38;;;1.30;;
22531;SDS011;11432;46.924;7.114;2023-11-19T04:51:00;2.17;;;1.25;;
22531;SDS011;11432;46.924;7.114;2023-11-19T04:53:26;1.52;;;1.00;;
22531;SDS011;11432;46.924;7.114;2023-11-19T04:55:51;3.05;;;1.20;;
22531;SDS011;11432;46.924;7.114;2023-11-19T04:58:17;2.90;;;1.10;;
22531;SDS011;11432;46.924;7.114;2023-11-19T05:00:44;2.33;;;1.10;;
22531;SDS011;11432;46.924;7.114;2023-11-19T05:03:10;2.17;;;1.27;;
22531;SDS011;11432;46.924;7.114;2023-11-19T05:05:36;3.53;;;1.30;;
22531;SDS011;11432;46.924;7.114;2023-11-19T05:08:01;4.20;;;1.50;;
22531;SDS011;11432;46.924;7.114;2023-11-19T05:10:27;2.08;;;1.10;;
22531;SDS011;11432;46.924;7.114;2023-11-19T05:12:53;1.60;;;0.90;;
22531;SDS011;11432;46.924;7.114;2023-11-19T05:15:21;1.70;;;1.05;;
22531;SDS011;11432;46.924;7.114;2023-11-19T05:17:46;2.17;;;1.10;;
22531;SDS011;11432;46.924;7.114;2023-11-19T05:20:12;2.20;;;1.00;;
22531;SDS011;11432;46.924;7.114;2023-11-19T05:22:42;1.27;;;0.93;;
22531;SDS011;11432;46.924;7.114;2023-11-19T05:25:08;2.30;;;0.98;;
22531;SDS011;11432;46.924;7.114;2023-11-19T05:27:34;2.25;;;1.13;;
22531;SDS011;11432;46.924;7.114;2023-11-19T05:30:01;3.53;;;1.10;;
22531;SDS011;11432;46.924;7.114;2023-11-19T05:32:27;4.55;;;1.10;;
22531;SDS011;11432;46.924;7.114;2023-11-19T05:34:53;3.90;;;0.98;;
22531;SDS011;11432;46.924;7.114;2023-11-19T05:37:18;2.97;;;1.10;;
22531;SDS011;11432;46.924;7.114;2023-11-19T05:39:44;4.00;;;1.08;;
22531;SDS011;11432;46.924;7.114;2023-11-19T05:42:10;1.70;;;0.82;;
22531;SDS011;11432;46.924;7.114;2023-11-19T05:44:36;1.15;;;0.90;;
22531;SDS011;11432;46.924;7.114;2023-11-19T05:47:02;5.53;;;0.98;;
22531;SDS011;11432;46.924;7.114;2023-11-19T05:49:28;1.20;;;0.80;;
22531;SDS011;11432;46.924;7.114;2023-11-19T05:51:54;1.08;;;0.90;;
22531;SDS011;11432;46.924;7.114;2023-11-19T05:54:21;1.08;;;0.70;;
22531;SDS011;11432;46.924;7.114;2023-11-19T05:56:47;5.43;;;1.13;;
22531;SDS011;11432;46.924;7.114;2023-11-19T05:59:14;1.23;;;0.93;;
22531;SDS011;11432;46.924;7.114;2023-11-19T06:01:42;1.77;;;1.10;;
22531;SDS011;11432;46.924;7.114;2023-11-19T06:04:09;2.17;;;0.93;;
22531;SDS011;11432;46.924;7.114;2023-11-19T06:06:35;1.83;;;0.80;;
22531;SDS011;11432;46.924;7.114;2023-11-19T06:09:01;1.17;;;0.68;;
22531;SDS011;11432;46.924;7.114;2023-11-19T06:11:31;2.78;;;0.80;;
22531;SDS011;11432;46.924;7.114;2023-11-19T06:13:58;1.67;;;0.70;;
22531;SDS011;11432;46.924;7.114;2023-11-19T06:16:23;1.92;;;0.73;;
22531;SDS011;11432;46.924;7.114;2023-11-19T06:18:49;1.25;;;0.73;;
22531;SDS011;11432;46.924;7.114;2023-11-19T06:21:15;1.55;;;0.80;;
22531;SDS011;11432;46.924;7.114;2023-11-19T06:23:41;1.48;;;0.50;;
22531;SDS011;11432;46.924;7.114;2023-11-19T06:26:07;4.88;;;0.73;;
22531;SDS011;11432;46.924;7.114;2023-11-19T06:28:33;3.03;;;0.60;;
22531;SDS011;11432;46.924;7.114;2023-11-19T06:30:59;3.33;;;0.77;;
22531;SDS011;11432;46.924;7.114;2023-11-19T06:33:25;1.70;;;0.70;;
22531;SDS011;11432;46.924;7.114;2023-11-19T06:35:52;2.47;;;0.60;;
22531;SDS011;11432;46.924;7.114;2023-11-19T06:38:17;1.02;;;0.50;;
22531;SDS011;11432;46.924;7.114;2023-11-19T06:40:43;4.07;;;0.63;;
22531;SDS011;11432;46.924;7.114;2023-11-19T06:43:09;2.25;;;0.70;;
22531;SDS011;11432;46.924;7.114;2023-11-19T06:45:34;0.93;;;0.52;;
22531;SDS011;11432;46.924;7.114;2023-11-19T06:48:02;2.10;;;0.70;;
22531;SDS011;11432;46.924;7.114;2023-11-19T06:50:31;1.98;;;0.60;;
22531;SDS011;11432;46.924;7.114;2023-11-19T06:52:57;1.70;;;0.65;;
22531;SDS011;11432;46.924;7.114;2023-11-19T06:55:22;3.45;;;0.50;;
22531;SDS011;11432;46.924;7.114;2023-11-19T06:57:48;1.52;;;0.57;;
22531;SDS011;11432;46.924;7.114;2023-11-19T07:00:14;0.80;;;0.40;;
22531;SDS011;11432;46.924;7.114;2023-11-19T07:02:39;2.05;;;0.60;;
22531;SDS011;11432;46.924;7.114;2023-11-19T07:05:05;1.15;;;0.47;;
22531;SDS011;11432;46.924;7.114;2023-11-19T07:07:32;3.60;;;0.70;;
22531;SDS011;11432;46.924;7.114;2023-11-19T07:09:58;2.20;;;0.63;;
22531;SDS011;11432;46.924;7.114;2023-11-19T07:12:24;0.75;;;0.40;;
22531;SDS011;11432;46.924;7.114;2023-11-19T07:14:51;1.35;;;0.90;;
22531;SDS011;11432;46.924;7.114;2023-11-19T07:17:17;3.65;;;0.45;;
22531;SDS011;11432;46.924;7.114;2023-11-19T07:19:43;1.77;;;0.60;;
22531;SDS011;11432;46.924;7.114;2023-11-19T07:22:09;1.48;;;0.70;;
22531;SDS011;11432;46.924;7.114;2023-11-19T07:24:36;2.63;;;0.73;;
22531;SDS011;11432;46.924;7.114;2023-11-19T07:27:04;1.67;;;0.70;;
22531;SDS011;11432;46.924;7.114;2023-11-19T07:29:30;1.60;;;0.80;;
22531;SDS011;11432;46.924;7.114;2023-11-19T07:31:56;1.90;;;0.80;;
22531;SDS011;11432;46.924;7.114;2023-11-19T07:34:22;1.92;;;0.63;;
22531;SDS011;11432;46.924;7.114;2023-11-19T07:36:48;2.42;;;0.63;;
22531;SDS011;11432;46.924;7.114;2023-11-19T07:39:14;1.15;;;0.50;;
22531;SDS011;11432;46.924;7.114;2023-11-19T07:41:39;3.03;;;0.63;;
22531;SDS011;11432;46.924;7.114;2023-11-19T07:44:05;0.90;;;0.43;;
22531;SDS011;11432;46.924;7.114;2023-11-19T07:46:31;2.15;;;0.73;;
22531;SDS011;11432;46.924;7.114;2023-11-19T07:48:57;5.03;;;0.65;;
22531;SDS011;11432;46.924;7.114;2023-11-19T07:51:23;1.67;;;0.50;;
22531;SDS011;11432;46.924;7.114;2023-11-19T07:53:49;0.82;;;0.30;;
22531;SDS011;11432;46.924;7.114;2023-11-19T07:56:14;1.50;;;0.63;;
22531;SDS011;11432;46.924;7.114;2023-11-19T07:58:40;1.80;;;0.90;;
22531;SDS011;11432;46.924;7.114;2023-11-19T08:01:06;1.35;;;0.47;;
22531;SDS011;11432;46.924;7.114;2023-11-19T08:03:32;1.60;;;0.57;;
22531;SDS011;11432;46.924;7.114;2023-11-19T08:05:59;3.65;;;0.60;;
22531;SDS011;11432;46.924;7.114;2023-11-19T08:08:26;2.00;;;1.00;;
22531;SDS011;11432;46.924;7.114;2023-11-19T08:10:51;1.08;;;0.50;;
22531;SDS011;11432;46.924;7.114;2023-11-19T08:13:20;1.17;;;0.63;;
22531;SDS011;11432;46.924;7.114;2023-11-19T08:15:46;1.67;;;0.63;;
22531;SDS011;11432;46.924;7.114;2023-11-19T08:18:12;1.67;;;0.70;;
22531;SDS011;11432;46.924;7.114;2023-11-19T08:20:38;1.63;;;0.60;;
22531;SDS011;11432;46.924;7.114;2023-11-19T08:23:03;0.77;;;0.60;;
22531;SDS011;11432;46.924;7.114;2023-11-19T08:25:30;1.77;;;0.50;;
22531;SDS011;11432;46.924;7.114;2023-11-19T08:27:55;1.88;;;0.60;;
22531;SDS011;11432;46.924;7.114;2023-11-19T08:30:21;1.60;;;0.47;;
22531;SDS011;11432;46.924;7.114;2023-11-19T08:32:47;0.60;;;0.40;;
22531;SDS011;11432;46.924;7.114;2023-11-19T08:35:12;0.88;;;0.50;;
22531;SDS011;11432;46.924;7.114;2023-11-19T08:37:38;1.20;;;0.40;;
22531;SDS011;11432;46.924;7.114;2023-11-19T08:40:03;0.98;;;0.40;;
22531;SDS011;11432;46.924;7.114;2023-11-19T08:42:30;1.02;;;0.45;;
22531;SDS011;11432;46.924;7.114;2023-11-19T08:44:55;2.13;;;0.47;;
22531;SDS011;11432;46.924;7.114;2023-11-19T08:47:21;0.77;;;0.40;;
22531;SDS011;11432;46.924;7.114;2023-11-19T08:49:50;1.05;;;0.32;;
22531;SDS011;11432;46.924;7.114;2023-11-19T08:52:20;2.33;;;0.57;;
22531;SDS011;11432;46.924;7.114;2023-11-19T08:54:45;2.08;;;0.30;;
22531;SDS011;11432;46.924;7.114;2023-11-19T08:57:11;1.60;;;0.50;;
22531;SDS011;11432;46.924;7.114;2023-11-19T08:59:37;1.38;;;0.55;;
22531;SDS011;11432;46.924;7.114;2023-11-19T09:02:05;1.40;;;0.60;;
22531;SDS011;11432;46.924;7.114;2023-11-19T09:04:31;1.23;;;0.50;;
22531;SDS011;11432;46.924;7.114;2023-11-19T09:06:57;1.38;;;0.40;;
22531;SDS011;11432;46.924;7.114;2023-11-19T09:09:23;1.02;;;0.50;;
22531;SDS011;11432;46.924;7.114;2023-11-19T09:11:49;1.65;;;0.50;;
22531;SDS011;11432;46.924;7.114;2023-11-19T09:14:14;0.70;;;0.40;;
22531;SDS011;11432;46.924;7.114;2023-11-19T09:16:40;0.82;;;0.60;;
22531;SDS011;11432;46.924;7.114;2023-11-19T09:19:06;0.68;;;0.28;;
22531;SDS011;11432;46.924;7.114;2023-11-19T09:21:31;0.57;;;0.43;;
22531;SDS011;11432;46.924;7.114;2023-11-19T09:23:59;1.73;;;0.38;;
22531;SDS011;11432;46.924;7.114;2023-11-19T09:26:25;2.22;;;0.32;;
22531;SDS011;11432;46.924;7.114;2023-11-19T09:28:50;3.22;;;0.80;;
22531;SDS011;11432;46.924;7.114;2023-11-19T09:31:16;0.73;;;0.40;;
22531;SDS011;11432;46.924;7.114;2023-11-19T09:33:42;3.95;;;0.60;;
22531;SDS011;11432;46.924;7.114;2023-11-19T09:36:09;0.52;;;0.38;;
22531;SDS011;11432;46.924;7.114;2023-11-19T09:38:38;2.65;;;0.57;;
22531;SDS011;11432;46.924;7.114;2023-11-19T09:41:07;0.57;;;0.32;;
22531;SDS011;11432;46.924;7.114;2023-11-19T09:43:35;1.15;;;0.50;;
22531;SDS011;11432;46.924;7.114;2023-11-19T09:48:32;1.98;;;0.65;;
22531;SDS011;11432;46.924;7.114;2023-11-19T09:51:00;1.00;;;0.50;;
22531;SDS011;11432;46.924;7.114;2023-11-19T09:53:27;0.68;;;0.50;;
22531;SDS011;11432;46.924;7.114;2023-11-19T09:55:53;1.52;;;0.40;;
22531;SDS011;11432;46.924;7.114;2023-11-19T09:58:20;0.38;;;0.22;;
22531;SDS011;11432;46.924;7.114;2023-11-19T10:00:45;0.90;;;0.50;;
22531;SDS011;11432;46.924;7.114;2023-11-19T10:03:13;1.92;;;0.55;;
22531;SDS011;11432;46.924;7.114;2023-11-19T10:05:39;2.05;;;0.50;;
22531;SDS011;11432;46.924;7.114;2023-11-19T10:08:05;1.42;;;0.50;;
22531;SDS011;11432;46.924;7.114;2023-11-19T10:10:32;7.35;;;2.03;;
22531;SDS011;11432;46.924;7.114;2023-11-19T10:12:59;0.77;;;0.47;;
22531;SDS011;11432;46.924;7.114;2023-11-19T10:15:25;1.15;;;0.50;;
22531;SDS011;11432;46.924;7.114;2023-11-19T10:20:21;2.47;;;0.52;;
22531;SDS011;11432;46.924;7.114;2023-11-19T10:22:47;2.95;;;0.70;;
22531;SDS011;11432;46.924;7.114;2023-11-19T10:25:22;1.55;;;0.60;;
22531;SDS011;11432;46.924;7.114;2023-11-19T10:27:53;1.27;;;0.57;;
22531;SDS011;11432;46.924;7.114;2023-11-19T10:30:23;1.25;;;0.85;;
22531;SDS011;11432;46.924;7.114;2023-11-19T10:33:03;1.60;;;0.50;;
22531;SDS011;11432;46.924;7.114;2023-11-19T10:35:34;1.45;;;0.73;;
22531;SDS011;11432;46.924;7.114;2023-11-19T10:38:01;0.98;;;0.30;;
22531;SDS011;11432;46.924;7.114;2023-11-19T10:40:40;0.98;;;0.30;;
22531;SDS011;11432;46.924;7.114;2023-11-19T10:43:06;2.10;;;0.60;;
22531;SDS011;11432;46.924;7.114;2023-11-19T10:45:35;0.73;;;0.40;;
22531;SDS011;11432;46.924;7.114;2023-11-19T10:48:04;0.68;;;0.50;;
22531;SDS011;11432;46.924;7.114;2023-11-19T10:50:32;3.45;;;0.40;;
22531;SDS011;11432;46.924;7.114;2023-11-19T10:52:59;1.80;;;0.63;;
22531;SDS011;11432;46.924;7.114;2023-11-19T10:55:28;1.67;;;0.28;;
22531;SDS011;11432;46.924;7.114;2023-11-19T10:57:59;0.68;;;0.45;;
22531;SDS011;11432;46.924;7.114;2023-11-19T11:00:26;0.10;;;0.10;;
22531;SDS011;11432;46.924;7.114;2023-11-19T11:03:05;0.77;;;0.30;;
22531;SDS011;11432;46.924;7.114;2023-11-19T11:05:37;0.57;;;0.40;;
22531;SDS011;11432;46.924;7.114;2023-11-19T11:08:06;1.65;;;0.50;;
22531;SDS011;11432;46.924;7.114;2023-11-19T11:10:32;0.55;;;0.38;;
22531;SDS011;11432;46.924;7.114;2023-11-19T11:13:07;0.47;;;0.30;;
22531;SDS011;11432;46.924;7.114;2023-11-19T11:15:34;2.63;;;0.50;;
22531;SDS011;11432;46.924;7.114;2023-11-19T11:18:01;1.13;;;0.40;;
22531;SDS011;11432;46.924;7.114;2023-11-19T11:20:31;0.65;;;0.40;;
22531;SDS011;11432;46.924;7.114;2023-11-19T11:28:37;0.70;;;0.47;;
22531;SDS011;11432;46.924;7.114;2023-11-19T11:34:58;2.33;;;0.60;;
22531;SDS011;11432;46.924;7.114;2023-11-19T11:37:10;3.10;;;0.60;;
22531;SDS011;11432;46.924;7.114;2023-11-19T11:39:41;2.25;;;0.32;;
22531;SDS011;11432;46.924;7.114;2023-11-19T11:45:06;1.48;;;0.65;;
22531;SDS011;11432;46.924;7.114;2023-11-19T11:48:19;1.48;;;0.50;;
22531;SDS011;11432;46.924;7.114;2023-11-19T11:50:24;2.85;;;0.50;;
22531;SDS011;11432;46.924;7.114;2023-11-19T11:55:27;1.58;;;0.60;;
22531;SDS011;11432;46.924;7.114;2023-11-19T11:57:57;1.50;;;0.45;;
22531;SDS011;11432;46.924;7.114;2023-11-19T12:00:30;0.57;;;0.40;;
22531;SDS011;11432;46.924;7.114;2023-11-19T12:02:59;3.13;;;0.68;;
22531;SDS011;11432;46.924;7.114;2023-11-19T12:05:25;0.40;;;0.40;;
22531;SDS011;11432;46.924;7.114;2023-11-19T12:07:55;1.30;;;0.50;;
22531;SDS011;11432;46.924;7.114;2023-11-19T12:10:24;1.83;;;0.40;;
22531;SDS011;11432;46.924;7.114;2023-11-19T12:12:52;2.97;;;0.50;;
22531;SDS011;11432;46.924;7.114;2023-11-19T12:15:18;0.50;;;0.37;;
22531;SDS011;11432;46.924;7.114;2023-11-19T12:17:49;1.75;;;0.47;;
22531;SDS011;11432;46.924;7.114;2023-11-19T12:20:16;1.25;;;0.40;;
22531;SDS011;11432;46.924;7.114;2023-11-19T12:22:43;2.13;;;0.50;;
22531;SDS011;11432;46.924;7.114;2023-11-19T12:25:11;0.50;;;0.40;;
22531;SDS011;11432;46.924;7.114;2023-11-19T12:27:41;0.88;;;0.40;;
22531;SDS011;11432;46.924;7.114;2023-11-19T12:30:10;2.78;;;0.60;;
22531;SDS011;11432;46.924;7.114;2023-11-19T12:32:40;4.35;;;0.85;;
22531;SDS011;11432;46.924;7.114;2023-11-19T12:35:10;1.45;;;0.70;;
22531;SDS011;11432;46.924;7.114;2023-11-19T12:42:50;5.13;;;0.55;;
22531;SDS011;11432;46.924;7.114;2023-11-19T12:45:17;1.42;;;0.90;;
22531;SDS011;11432;46.924;7.114;2023-11-19T12:47:45;2.20;;;0.95;;
22531;SDS011;11432;46.924;7.114;2023-11-19T12:50:14;2.78;;;0.80;;
22531;SDS011;11432;46.924;7.114;2023-11-19T12:52:42;2.22;;;0.65;;
22531;SDS011;11432;46.924;7.114;2023-11-19T12:57:53;2.63;;;0.80;;
22531;SDS011;11432;46.924;7.114;2023-11-19T13:00:20;2.15;;;0.90;;
22531;SDS011;11432;46.924;7.114;2023-11-19T13:02:47;1.30;;;0.90;;
22531;SDS011;11432;46.924;7.114;2023-11-19T13:05:24;2.40;;;0.90;;
22531;SDS011;11432;46.924;7.114;2023-11-19T13:08:07;2.35;;;0.98;;
22531;SDS011;11432;46.924;7.114;2023-11-19T13:10:49;1.80;;;0.73;;
22531;SDS011;11432;46.924;7.114;2023-11-19T13:13:18;1.98;;;0.80;;
22531;SDS011;11432;46.924;7.114;2023-11-19T13:15:44;1.92;;;0.90;;
22531;SDS011;11432;46.924;7.114;2023-11-19T13:18:11;2.85;;;0.73;;
22531;SDS011;11432;46.924;7.114;2023-11-19T13:20:37;1.95;;;0.82;;
22531;SDS011;11432;46.924;7.114;2023-11-19T13:23:03;0.77;;;0.68;;
22531;SDS011;11432;46.924;7.114;2023-11-19T13:25:30;1.27;;;0.70;;
22531;SDS011;11432;46.924;7.114;2023-11-19T13:30:25;2.03;;;0.82;;
22531;SDS011;11432;46.924;7.114;2023-11-19T13:32:51;1.88;;;0.75;;
22531;SDS011;11432;46.924;7.114;2023-11-19T13:35:17;1.63;;;0.80;;
22531;SDS011;11432;46.924;7.114;2023-11-19T13:37:46;4.15;;;1.35;;
22531;SDS011;11432;46.924;7.114;2023-11-19T13:40:12;1.48;;;0.82;;
22531;SDS011;11432;46.924;7.114;2023-11-19T13:42:41;2.15;;;0.82;;
22531;SDS011;11432;46.924;7.114;2023-11-19T13:47:36;1.27;;;0.90;;
22531;SDS011;11432;46.924;7.114;2023-11-19T13:50:15;1.15;;;0.80;;
22531;SDS011;11432;46.924;7.114;2023-11-19T13:52:45;3.72;;;1.20;;
22531;SDS011;11432;46.924;7.114;2023-11-19T13:55:12;2.33;;;1.05;;
22531;SDS011;11432;46.924;7.114;2023-11-19T13:57:38;2.03;;;0.90;;
22531;SDS011;11432;46.924;7.114;2023-11-19T14:00:05;2.38;;;0.80;;
22531;SDS011;11432;46.924;7.114;2023-11-19T14:02:42;3.08;;;1.10;;
22531;SDS011;11432;46.924;7.114;2023-11-19T14:05:08;3.00;;;1.13;;
22531;SDS011;11432;46.924;7.114;2023-11-19T14:07:36;1.13;;;0.80;;
22531;SDS011;11432;46.924;7.114;2023-11-19T14:10:02;2.28;;;0.85;;
22531;SDS011;11432;46.924;7.114;2023-11-19T14:12:30;2.28;;;0.77;;
22531;SDS011;11432;46.924;7.114;2023-11-19T14:14:55;2.78;;;0.77;;
22531;SDS011;11432;46.924;7.114;2023-11-19T14:17:21;1.27;;;0.68;;
22531;SDS011;11432;46.924;7.114;2023-11-19T14:19:47;3.25;;;0.80;;
22531;SDS011;11432;46.924;7.114;2023-11-19T14:22:12;2.17;;;0.75;;
22531;SDS011;11432;46.924;7.114;2023-11-19T14:24:38;1.40;;;0.60;;
22531;SDS011;11432;46.924;7.114;2023-11-19T14:27:05;1.15;;;0.70;;
22531;SDS011;11432;46.924;7.114;2023-11-19T14:29:31;1.02;;;0.60;;
22531;SDS011;11432;46.924;7.114;2023-11-19T14:31:57;1.13;;;0.70;;
22531;SDS011;11432;46.924;7.114;2023-11-19T14:34:23;3.15;;;1.10;;
22531;SDS011;11432;46.924;7.114;2023-11-19T14:36:51;1.73;;;0.73;;
22531;SDS011;11432;46.924;7.114;2023-11-19T14:39:17;1.70;;;0.60;;
22531;SDS011;11432;46.924;7.114;2023-11-19T14:41:42;1.15;;;0.50;;
22531;SDS011;11432;46.924;7.114;2023-11-19T14:44:11;2.05;;;0.60;;
22531;SDS011;11432;46.924;7.114;2023-11-19T14:46:37;1.45;;;0.63;;
22531;SDS011;11432;46.924;7.114;2023-11-19T14:49:03;1.73;;;0.70;;
22531;SDS011;11432;46.924;7.114;2023-11-19T14:51:29;2.08;;;0.70;;
22531;SDS011;11432;46.924;7.114;2023-11-19T14:53:55;1.02;;;0.52;;
22531;SDS011;11432;46.924;7.114;2023-11-19T14:56:21;1.02;;;0.50;;
22531;SDS011;11432;46.924;7.114;2023-11-19T14:58:46;1.50;;;0.73;;
22531;SDS011;11432;46.924;7.114;2023-11-19T15:01:12;3.38;;;0.80;;
22531;SDS011;11432;46.924;7.114;2023-11-19T15:03:38;1.05;;;0.77;;
22531;SDS011;11432;46.924;7.114;2023-11-19T15:06:05;1.73;;;0.70;;
22531;SDS011;11432;46.924;7.114;2023-11-19T15:08:31;1.45;;;0.80;;
22531;SDS011;11432;46.924;7.114;2023-11-19T15:10:57;2.53;;;1.00;;
22531;SDS011;11432;46.924;7.114;2023-11-19T15:13:23;2.65;;;0.70;;
22531;SDS011;11432;46.924;7.114;2023-11-19T15:15:49;1.23;;;0.65;;
22531;SDS011;11432;46.924;7.114;2023-11-19T15:18:15;3.22;;;0.80;;
22531;SDS011;11432;46.924;7.114;2023-11-19T15:20:42;1.48;;;0.75;;